createdAt,value
2019-02-10T13:41:06.180Z,11.58
2019-02-10T13:43:41.996Z,11.56
2019-02-10T13:46:10.522Z,11.17
2019-02-10T13:51:39.692Z,10.65
2019-02-10T13:54:05.846Z,10.34
2019-02-10T13:56:32.153Z,10.20
2019-02-10T13:58:58.324Z,10.01
2019-02-10T14:01:26.458Z,9.91
2019-02-10T14:03:52.664Z,9.69
2019-02-10T14:06:18.906Z,9.53
2019-02-10T14:08:45.105Z,9.35
2019-02-10T14:11:11.332Z,9.20
2019-02-10T14:13:37.499Z,9.01
2019-02-10T14:16:03.856Z,8.99
2019-02-10T14:18:30.078Z,8.84
2019-02-10T14:20:56.402Z,8.79
2019-02-10T14:23:22.591Z,8.72
2019-02-10T14:25:48.953Z,8.67
2019-02-10T14:28:15.154Z,8.60
2019-02-10T14:30:41.333Z,8.49
2019-02-10T14:33:07.644Z,8.53
2019-02-10T14:35:33.878Z,8.46
2019-02-10T14:38:00.026Z,8.40
2019-02-10T14:40:33.443Z,8.38
2019-02-10T14:42:54.281Z,8.32
2019-02-10T14:45:20.648Z,8.28
2019-02-10T14:47:46.792Z,8.29
2019-02-10T14:50:16.858Z,8.26
2019-02-10T14:52:43.133Z,8.25
2019-02-10T14:55:09.650Z,8.21
2019-02-10T14:57:36.134Z,8.20
2019-02-10T15:00:04.527Z,8.16
2019-02-10T15:02:30.832Z,8.18
2019-02-10T15:04:59.073Z,8.23
2019-02-10T15:07:26.502Z,8.29
2019-02-10T15:09:56.730Z,8.33
2019-02-10T15:12:51.880Z,8.37
2019-02-10T15:15:22.306Z,8.42
2019-02-10T15:18:00.195Z,8.43
2019-02-10T15:20:35.163Z,8.43
2019-02-10T15:23:02.021Z,8.44
2019-02-10T15:25:28.844Z,8.42
2019-02-10T15:27:55.507Z,8.40
2019-02-10T15:30:23.878Z,8.45
2019-02-10T15:32:50.250Z,8.44
2019-02-10T15:35:16.977Z,8.45
2019-02-10T15:37:46.296Z,8.47
2019-02-10T15:40:12.519Z,8.42
2019-02-10T15:42:38.791Z,8.42
2019-02-10T15:45:07.789Z,8.37
2019-02-10T15:47:34.143Z,8.28
2019-02-10T15:50:00.464Z,8.26
2019-02-10T15:52:26.788Z,8.24
2019-02-10T15:54:53.140Z,8.18
2019-02-10T15:57:19.348Z,8.15
2019-02-10T15:59:45.579Z,8.09
2019-02-10T16:02:11.776Z,8.00
2019-02-10T16:04:38.042Z,7.96
2019-02-10T16:07:04.303Z,7.89
2019-02-10T16:09:30.559Z,7.80
2019-02-10T16:11:56.792Z,7.71
2019-02-10T16:14:22.961Z,7.66
2019-02-10T16:16:49.335Z,7.57
2019-02-10T16:19:15.499Z,7.48
2019-02-10T16:21:41.766Z,7.37
2019-02-10T16:24:07.935Z,7.31
2019-02-10T16:26:34.236Z,7.23
2019-02-10T16:29:00.377Z,7.17
2019-02-10T16:31:26.655Z,7.08
2019-02-10T16:33:53.675Z,7.07
2019-02-10T16:36:20.123Z,7.05
2019-02-10T16:38:46.259Z,6.96
2019-02-10T16:41:12.819Z,6.91
2019-02-10T16:43:39.295Z,6.83
2019-02-10T16:46:07.447Z,6.77
2019-02-10T16:48:33.681Z,6.71
2019-02-10T16:50:59.907Z,6.67
2019-02-10T16:53:26.133Z,6.66
2019-02-10T16:55:52.336Z,6.58
2019-02-10T16:58:19.584Z,6.59
2019-02-10T17:00:45.972Z,6.60
2019-02-10T17:03:12.137Z,6.60
2019-02-10T17:05:39.880Z,6.60
2019-02-10T17:08:06.507Z,6.63
2019-02-10T17:10:33.971Z,6.61
2019-02-10T17:13:00.290Z,6.60
2019-02-10T17:15:26.725Z,6.58
2019-02-10T17:17:52.905Z,6.57
2019-02-10T17:20:19.335Z,6.62
2019-02-10T17:22:45.657Z,6.57
2019-02-10T17:25:15.105Z,6.58
2019-02-10T17:27:42.022Z,6.57
2019-02-10T17:30:11.142Z,6.55
2019-02-10T17:32:37.476Z,6.55
2019-02-10T17:35:08.513Z,6.57
2019-02-10T17:37:35.074Z,6.53
2019-02-10T17:40:01.290Z,6.53
2019-02-10T17:42:32.637Z,6.49
2019-02-10T17:44:58.910Z,6.50
2019-02-10T17:47:25.369Z,6.52
2019-02-10T17:49:51.701Z,6.54
2019-02-10T17:52:17.834Z,6.55
2019-02-10T17:54:44.142Z,6.52
2019-02-10T17:57:12.392Z,6.52
2019-02-10T17:59:38.719Z,6.49
2019-02-10T18:02:05.059Z,6.51
2019-02-10T18:04:37.391Z,6.52
2019-02-10T18:07:01.471Z,6.49
2019-02-10T18:09:27.692Z,6.36
2019-02-10T18:11:54.034Z,6.28
2019-02-10T18:14:40.652Z,6.20
2019-02-10T18:17:09.203Z,6.09
2019-02-10T18:19:39.383Z,5.97
2019-02-10T18:22:07.571Z,5.92
2019-02-10T18:24:39.801Z,5.85
2019-02-10T18:27:24.644Z,5.81
2019-02-10T18:29:56.812Z,5.78
2019-02-10T18:32:43.264Z,5.75
2019-02-10T18:35:17.236Z,5.75
2019-02-10T18:37:51.483Z,5.76
2019-02-10T18:40:31.634Z,5.73
2019-02-10T18:43:08.606Z,5.70
2019-02-10T18:45:48.800Z,5.70
2019-02-10T18:48:26.296Z,5.70
2019-02-10T18:51:06.682Z,5.67
2019-02-10T18:53:43.806Z,5.68
2019-02-10T18:56:14.981Z,5.67
2019-02-10T18:58:54.389Z,5.67
2019-02-10T19:01:24.833Z,5.71
2019-02-10T19:04:02.057Z,5.69
2019-02-10T19:06:33.026Z,5.68
2019-02-10T19:09:17.884Z,5.62
2019-02-10T19:11:51.632Z,5.60
2019-02-10T19:14:29.132Z,5.59
2019-02-10T19:16:58.491Z,5.58
2019-02-10T19:19:40.031Z,5.61
2019-02-10T19:22:26.557Z,5.66
2019-02-10T19:25:00.690Z,5.65
2019-02-10T19:27:40.526Z,5.71
2019-02-10T19:30:11.165Z,5.73
2019-02-10T19:32:45.476Z,5.75
2019-02-10T19:35:16.709Z,5.79
2019-02-10T19:38:02.748Z,5.77
2019-02-10T19:40:42.648Z,5.75
2019-02-10T19:43:25.938Z,5.71
2019-02-10T19:46:06.327Z,5.70
2019-02-10T19:48:34.629Z,5.69
2019-02-10T19:51:19.319Z,5.66
2019-02-10T19:53:47.396Z,5.67
2019-02-10T19:56:15.634Z,5.68
2019-02-10T19:58:46.630Z,5.69
2019-02-10T20:01:23.933Z,5.65
2019-02-10T20:03:57.949Z,5.57
2019-02-10T20:06:42.789Z,5.50
2019-02-10T20:09:10.806Z,5.46
2019-02-10T20:11:38.984Z,5.40
2019-02-10T20:14:07.088Z,5.40
2019-02-10T20:16:53.392Z,5.41
2019-02-10T20:19:24.236Z,5.44
2019-02-10T20:21:55.382Z,5.46
2019-02-10T20:24:40.052Z,5.44
2019-02-10T20:27:14.243Z,5.46
2019-02-10T20:30:00.437Z,5.45
2019-02-10T20:32:37.935Z,5.44
2019-02-10T20:35:13.456Z,5.45
2019-02-10T20:37:44.322Z,5.47
2019-02-10T20:40:12.827Z,5.48
2019-02-10T20:42:40.982Z,5.37
2019-02-10T20:45:26.912Z,5.36
2019-02-10T20:48:06.268Z,5.35
2019-02-10T20:50:34.785Z,5.16
2019-02-10T20:53:03.119Z,5.00
2019-02-10T20:55:37.259Z,4.91
2019-02-10T20:58:10.653Z,4.84
2019-02-10T21:00:42.146Z,4.77
2019-02-10T21:03:25.007Z,4.75
2019-02-10T21:05:53.164Z,4.71
2019-02-10T21:11:40.608Z,4.67
2019-02-10T21:14:12.966Z,4.62
2019-02-10T21:16:49.038Z,4.59
2019-02-10T21:19:17.395Z,4.53
2019-02-10T21:21:51.292Z,4.43
2019-02-10T21:24:32.657Z,4.40
2019-02-10T21:27:02.792Z,4.34
2019-02-10T21:29:33.827Z,4.26
2019-02-10T21:32:02.465Z,4.23
2019-02-10T21:34:56.378Z,4.15
2019-02-10T21:37:36.733Z,4.08
2019-02-10T21:46:21.074Z,3.86
2019-02-10T21:48:51.186Z,3.75
2019-02-10T21:51:17.604Z,3.71
2019-02-10T21:53:43.843Z,3.65
2019-02-10T21:56:10.079Z,3.62
2019-02-10T21:58:36.503Z,3.56
2019-02-10T22:01:03.210Z,3.55
2019-02-10T22:03:29.714Z,3.56
2019-02-10T22:05:59.331Z,3.56
2019-02-10T22:08:28.089Z,3.56
2019-02-10T22:10:55.926Z,3.54
2019-02-10T22:13:22.367Z,3.53
2019-02-10T22:15:48.877Z,3.54
2019-02-10T22:18:15.047Z,3.52
2019-02-10T22:20:41.260Z,3.53
2019-02-10T22:23:07.508Z,3.50
2019-02-10T22:25:33.798Z,3.52
2019-02-10T22:28:00.049Z,3.50
2019-02-10T22:30:26.169Z,3.49
2019-02-10T22:32:52.418Z,3.48
2019-02-10T22:35:18.555Z,3.46
2019-02-10T22:37:46.720Z,3.44
2019-02-10T22:40:12.914Z,3.43
2019-02-10T22:42:45.737Z,3.37
2019-02-10T22:45:10.963Z,3.40
2019-02-10T22:47:42.783Z,3.42
2019-02-10T22:50:17.015Z,3.41
2019-02-10T22:52:43.170Z,3.43
2019-02-10T22:55:11.913Z,3.46
2019-02-10T22:57:51.183Z,3.43
2019-02-10T23:00:22.946Z,3.44
2019-02-10T23:02:51.284Z,3.43
2019-02-10T23:05:20.345Z,3.43
2019-02-10T23:07:51.150Z,3.42
2019-02-10T23:10:17.470Z,3.35
2019-02-10T23:12:53.467Z,3.35
2019-02-10T23:15:13.789Z,3.35
2019-02-10T23:17:40.261Z,3.36
2019-02-10T23:20:06.455Z,3.37
2019-02-10T23:22:32.730Z,3.42
2019-02-10T23:25:04.617Z,3.44
2019-02-10T23:27:30.794Z,3.48
2019-02-10T23:29:56.983Z,3.49
2019-02-10T23:32:23.238Z,3.47
2019-02-10T23:34:49.354Z,3.54
2019-02-10T23:37:15.629Z,3.54
2019-02-10T23:39:41.846Z,3.55
2019-02-10T23:42:08.092Z,3.60
2019-02-10T23:44:34.289Z,3.62
2019-02-10T23:47:00.535Z,3.63
2019-02-10T23:49:26.809Z,3.68
2019-02-10T23:51:53.045Z,3.69
2019-02-10T23:54:19.267Z,3.74
2019-02-10T23:56:47.178Z,3.73
2019-02-10T23:59:13.774Z,3.74
